Time,TemperatureF,DewpointF,PressureIn,WindDirection,WindDirectionDegrees,WindSpeedMPH,WindSpeedGustMPH,Humidity,HourlyPrecipIn,Conditions,Clouds,dailyrainin,SoftwareType,DateUTC
2013-05-25 00:14:00,51.1,21.0,29.70,SSW,199,6.0,-999.0,31,-99.99,,,0.00,weatherlink.com 1.10,2013-05-25 06:14:00,
2013-05-25 00:29:00,50.2,24.0,29.70,SSE,150,2.0,-999.0,36,-99.99,,,0.00,weatherlink.com 1.10,2013-05-25 06:29:00,
2013-05-25 00:44:00,49.7,22.0,29.69,SSE,151,2.0,-999.0,34,-99.99,,,0.00,weatherlink.com 1.10,2013-05-25 06:44:00,
2013-05-25 00:59:00,48.7,21.0,29.69,SSE,148,6.0,-999.0,34,-99.99,,,0.00,weatherlink.com 1.10,2013-05-25 06:59:00,
2013-05-25 01:15:00,49.3,18.0,29.69,SSE,148,6.0,-999.0,29,-99.99,,,0.00,weatherlink.com 1.10,2013-05-25 07:15:00,
2013-05-25 01:30:00,49.3,20.0,29.68,SE,139,13.0,-999.0,32,-99.99,,,0.00,weatherlink.com 1.10,2013-05-25 07:30:00,
2013-05-25 01:45:00,49.2,22.0,29.68,SSE,157,14.0,-999.0,34,-99.99,,,0.00,weatherlink.com 1.10,2013-05-25 07:45:00,
2013-05-25 02:00:00,49.4,18.0,29.68,SSE,149,15.0,-999.0,29,-99.99,,,0.00,weatherlink.com 1.10,2013-05-25 08:00:00,
2013-05-25 02:15:00,49.0,18.0,29.67,SSE,165,15.0,-999.0,29,-99.99,,,0.00,weatherlink.com 1.10,2013-05-25 08:15:00,
2013-05-25 02:30:00,49.5,17.0,29.67,South,169,12.0,-999.0,27,-99.99,,,0.00,weatherlink.com 1.10,2013-05-25 08:30:00,
2013-05-25 02:45:00,49.4,16.0,29.67,South,169,14.0,-999.0,26,-99.99,,,0.00,weatherlink.com 1.10,2013-05-25 08:45:00,
2013-05-25 03:00:00,48.8,13.0,29.66,South,175,18.0,-999.0,24,-99.99,,,0.00,weatherlink.com 1.10,2013-05-25 09:00:00,
2013-05-25 03:15:00,48.7,13.0,29.66,South,189,17.0,-999.0,24,-99.99,,,0.00,weatherlink.com 1.10,2013-05-25 09:15:00,
2013-05-25 03:30:00,48.2,13.0,29.66,South,175,16.0,-999.0,24,-99.99,,,0.00,weatherlink.com 1.10,2013-05-25 09:30:00,
2013-05-25 03:45:00,48.2,13.0,29.66,SSW,194,16.0,-999.0,24,-99.99,,,0.00,weatherlink.com 1.10,2013-05-25 09:45:00,
2013-05-25 04:01:00,47.9,13.0,29.66,South,184,18.0,-999.0,24,-99.99,,,0.00,weatherlink.com 1.10,2013-05-25 10:01:00,
2013-05-25 04:16:00,47.8,12.0,29.66,SSE,158,22.0,-999.0,24,-99.99,,,0.00,weatherlink.com 1.10,2013-05-25 10:16:00,
2013-05-25 04:31:00,47.7,13.0,29.66,South,185,19.0,-999.0,25,-99.99,,,0.00,weatherlink.com 1.10,2013-05-25 10:31:00,
2013-05-25 04:46:00,47.9,13.0,29.66,South,188,19.0,-999.0,24,-99.99,,,0.00,weatherlink.com 1.10,2013-05-25 10:46:00,
2013-05-25 05:01:00,48.0,14.0,29.66,SSW,209,20.0,-999.0,25,-99.99,,,0.00,weatherlink.com 1.10,2013-05-25 11:01:00,
2013-05-25 05:16:00,47.8,13.0,29.66,South,186,21.0,-999.0,25,-99.99,,,0.00,weatherlink.com 1.10,2013-05-25 11:16:00,
2013-05-25 05:31:00,47.8,13.0,29.67,South,176,15.0,-999.0,25,-99.99,,,0.00,weatherlink.com 1.10,2013-05-25 11:31:00,
2013-05-25 05:46:00,47.6,13.0,29.67,South,175,17.0,-999.0,25,-99.99,,,0.00,weatherlink.com 1.10,2013-05-25 11:46:00,
2013-05-25 06:01:00,47.6,14.0,29.67,South,174,18.0,-999.0,26,-99.99,,,0.00,weatherlink.com 1.10,2013-05-25 12:01:00,
2013-05-25 06:17:00,47.6,14.0,29.68,South,177,17.0,-999.0,26,-99.99,,,0.00,weatherlink.com 1.10,2013-05-25 12:17:00,
2013-05-25 06:32:00,47.4,14.0,29.69,South,184,19.0,-999.0,26,-99.99,,,0.00,weatherlink.com 1.10,2013-05-25 12:32:00,
2013-05-25 06:47:00,47.9,14.0,29.70,South,182,19.0,-999.0,26,-99.99,,,0.00,weatherlink.com 1.10,2013-05-25 12:47:00,
2013-05-25 07:02:00,47.9,14.0,29.70,South,171,18.0,-999.0,26,-99.99,,,0.00,weatherlink.com 1.10,2013-05-25 13:02:00,
2013-05-25 07:17:00,47.8,14.0,29.70,South,169,18.0,-999.0,26,-99.99,,,0.00,weatherlink.com 1.10,2013-05-25 13:17:00,
2013-05-25 07:32:00,48.3,15.0,29.70,South,180,15.0,-999.0,26,-99.99,,,0.00,weatherlink.com 1.10,2013-05-25 13:32:00,
2013-05-25 07:47:00,48.8,15.0,29.70,South,178,16.0,-999.0,26,-99.99,,,0.00,weatherlink.com 1.10,2013-05-25 13:47:00,
2013-05-25 08:03:00,49.4,16.0,29.70,South,171,18.0,-999.0,26,-99.99,,,0.00,weatherlink.com 1.10,2013-05-25 14:03:00,
2013-05-25 08:18:00,50.1,16.0,29.70,South,190,16.0,-999.0,26,-99.99,,,0.00,weatherlink.com 1.10,2013-05-25 14:18:00,
2013-05-25 08:33:00,50.9,16.0,29.70,South,177,12.0,-999.0,25,-99.99,,,0.00,weatherlink.com 1.10,2013-05-25 14:33:00,
2013-05-25 08:48:00,51.7,16.0,29.70,South,184,11.0,-999.0,24,-99.99,,,0.00,weatherlink.com 1.10,2013-05-25 14:48:00,
2013-05-25 09:03:00,52.7,18.0,29.70,SSW,202,14.0,-999.0,25,-99.99,,,0.00,weatherlink.com 1.10,2013-05-25 15:03:00,
2013-05-25 09:18:00,54.1,18.0,29.70,South,190,13.0,-999.0,24,-99.99,,,0.00,weatherlink.com 1.10,2013-05-25 15:18:00,
2013-05-25 09:34:00,54.6,16.0,29.70,South,175,16.0,-999.0,22,-99.99,,,0.00,weatherlink.com 1.10,2013-05-25 15:34:00,
2013-05-25 09:49:00,54.6,14.0,29.70,South,180,9.0,-999.0,20,-99.99,,,0.00,weatherlink.com 1.10,2013-05-25 15:49:00,
2013-05-25 10:04:00,55.3,13.0,29.69,SSW,204,12.0,-999.0,19,-99.99,,,0.00,weatherlink.com 1.10,2013-05-25 16:04:00,
2013-05-25 10:19:00,55.8,14.0,29.69,SSW,205,17.0,-999.0,19,-99.99,,,0.00,weatherlink.com 1.10,2013-05-25 16:19:00,
2013-05-25 10:34:00,56.4,16.0,29.68,SSW,211,17.0,-999.0,20,-99.99,,,0.00,weatherlink.com 1.10,2013-05-25 16:34:00,
2013-05-25 10:49:00,57.4,16.0,29.68,SSE,159,16.0,-999.0,20,-99.99,,,0.00,weatherlink.com 1.10,2013-05-25 16:49:00,
2013-05-25 11:05:00,57.7,15.0,29.67,South,173,16.0,-999.0,19,-99.99,,,0.00,weatherlink.com 1.10,2013-05-25 17:05:00,
2013-05-25 11:20:00,57.8,14.0,29.68,SSW,200,11.0,-999.0,18,-99.99,,,0.00,weatherlink.com 1.10,2013-05-25 17:20:00,
2013-05-25 11:35:00,58.1,15.0,29.67,SSW,213,11.0,-999.0,18,-99.99,,,0.00,weatherlink.com 1.10,2013-05-25 17:35:00,
2013-05-25 11:50:00,58.9,16.0,29.67,South,187,13.0,-999.0,19,-99.99,,,0.00,weatherlink.com 1.10,2013-05-25 17:50:00,
2013-05-25 12:05:00,58.8,11.0,29.66,South,175,24.0,-999.0,15,-99.99,,,0.00,weatherlink.com 1.10,2013-05-25 18:05:00,
2013-05-25 12:20:00,58.6,11.0,29.66,SSW,195,20.0,-999.0,15,-99.99,,,0.00,weatherlink.com 1.10,2013-05-25 18:20:00,
2013-05-25 12:36:00,57.5,8.0,29.67,SSW,200,17.0,-999.0,14,-99.99,,,0.00,weatherlink.com 1.10,2013-05-25 18:36:00,
2013-05-25 12:51:00,58.6,8.0,29.67,SSW,192,17.0,-999.0,13,-99.99,,,0.00,weatherlink.com 1.10,2013-05-25 18:51:00,
2013-05-25 13:06:00,59.6,13.0,29.67,SW,215,3.0,-999.0,16,-99.99,,,0.00,weatherlink.com 1.10,2013-05-25 19:06:00,
2013-05-25 13:22:00,61.4,17.0,29.66,SSE,151,10.0,-999.0,18,-99.99,,,0.00,weatherlink.com 1.10,2013-05-25 19:22:00,
2013-05-25 13:36:00,59.6,14.0,29.66,South,187,12.0,-999.0,17,-99.99,,,0.00,weatherlink.com 1.10,2013-05-25 19:36:00,
2013-05-25 13:51:00,59.9,16.0,29.66,South,175,17.0,-999.0,18,-99.99,,,0.00,weatherlink.com 1.10,2013-05-25 19:51:00,
2013-05-25 14:07:00,60.3,15.0,29.66,SW,220,16.0,-999.0,17,-99.99,,,0.00,weatherlink.com 1.10,2013-05-25 20:07:00,
2013-05-25 14:22:00,61.3,17.0,29.66,SSE,153,14.0,-999.0,18,-99.99,,,0.00,weatherlink.com 1.10,2013-05-25 20:22:00,
2013-05-25 14:37:00,60.3,15.0,29.66,SSW,194,18.0,-999.0,17,-99.99,,,0.00,weatherlink.com 1.10,2013-05-25 20:37:00,
2013-05-25 14:52:00,60.7,17.0,29.66,SSW,202,15.0,-999.0,18,-99.99,,,0.00,weatherlink.com 1.10,2013-05-25 20:52:00,
2013-05-25 15:07:00,60.2,14.0,29.65,SE,140,11.0,-999.0,16,-99.99,,,0.00,weatherlink.com 1.10,2013-05-25 21:07:00,
2013-05-25 15:22:00,62.5,14.0,29.65,SSW,192,17.0,-999.0,15,-99.99,,,0.00,weatherlink.com 1.10,2013-05-25 21:22:00,
2013-05-25 15:38:00,62.6,16.0,29.65,SSE,154,9.0,-999.0,16,-99.99,,,0.00,weatherlink.com 1.10,2013-05-25 21:38:00,
2013-05-25 15:53:00,61.3,15.0,29.64,South,175,20.0,-999.0,16,-99.99,,,0.00,weatherlink.com 1.10,2013-05-25 21:53:00,
2013-05-25 16:08:00,62.0,15.0,29.64,South,183,15.0,-999.0,16,-99.99,,,0.00,weatherlink.com 1.10,2013-05-25 22:08:00,
2013-05-25 16:24:00,62.8,9.0,29.62,SSE,168,17.0,-999.0,12,-99.99,,,0.00,weatherlink.com 1.10,2013-05-25 22:24:00,
2013-05-25 16:38:00,62.7,14.0,29.63,South,181,16.0,-999.0,15,-99.99,,,0.00,weatherlink.com 1.10,2013-05-25 22:38:00,
2013-05-25 16:53:00,64.0,12.0,29.63,SW,215,15.0,-999.0,13,-99.99,,,0.00,weatherlink.com 1.10,2013-05-25 22:53:00,
2013-05-25 17:09:00,61.6,10.0,29.61,South,184,27.0,-999.0,13,-99.99,,,0.00,weatherlink.com 1.10,2013-05-25 23:09:00,
2013-05-25 17:24:00,61.8,10.0,29.62,SSE,168,27.0,-999.0,13,-99.99,,,0.00,weatherlink.com 1.10,2013-05-25 23:24:00,
2013-05-25 17:39:00,61.9,10.0,29.62,SSW,209,16.0,-999.0,13,-99.99,,,0.00,weatherlink.com 1.10,2013-05-25 23:39:00,
2013-05-25 17:54:00,60.9,10.0,29.62,South,178,15.0,-999.0,13,-99.99,,,0.00,weatherlink.com 1.10,2013-05-25 23:54:00,
2013-05-25 18:09:00,61.4,10.0,29.61,South,190,21.0,-999.0,13,-99.99,,,0.00,weatherlink.com 1.10,2013-05-26 00:09:00,
2013-05-25 18:24:00,59.9,9.0,29.61,SSW,192,16.0,-999.0,13,-99.99,,,0.00,weatherlink.com 1.10,2013-05-26 00:24:00,
2013-05-25 18:39:00,60.9,10.0,29.61,South,181,18.0,-999.0,13,-99.99,,,0.00,weatherlink.com 1.10,2013-05-26 00:39:00,
2013-05-25 18:55:00,60.7,11.0,29.61,South,186,22.0,-999.0,14,-99.99,,,0.00,weatherlink.com 1.10,2013-05-26 00:55:00,
2013-05-25 19:10:00,60.4,11.0,29.62,SSW,197,9.0,-999.0,14,-99.99,,,0.00,weatherlink.com 1.10,2013-05-26 01:10:00,
2013-05-25 19:25:00,59.8,12.0,29.61,South,190,11.0,-999.0,15,-99.99,,,0.00,weatherlink.com 1.10,2013-05-26 01:25:00,
2013-05-25 19:40:00,59.6,12.0,29.62,SSW,193,10.0,-999.0,15,-99.99,,,0.00,weatherlink.com 1.10,2013-05-26 01:40:00,
2013-05-25 19:55:00,58.6,11.0,29.62,SW,219,8.0,-999.0,15,-99.99,,,0.00,weatherlink.com 1.10,2013-05-26 01:55:00,
2013-05-25 20:10:00,57.5,13.0,29.62,SSW,207,12.0,-999.0,17,-99.99,,,0.00,weatherlink.com 1.10,2013-05-26 02:10:00,
2013-05-25 20:26:00,56.7,12.0,29.62,SW,217,10.0,-999.0,17,-99.99,,,0.00,weatherlink.com 1.10,2013-05-26 02:26:00,
2013-05-25 20:41:00,56.2,13.0,29.62,SSW,200,12.0,-999.0,18,-99.99,,,0.00,weatherlink.com 1.10,2013-05-26 02:41:00,
2013-05-25 20:56:00,56.1,13.0,29.62,SSW,200,14.0,-999.0,18,-99.99,,,0.00,weatherlink.com 1.10,2013-05-26 02:56:00,
2013-05-25 21:11:00,55.5,14.0,29.63,SW,216,12.0,-999.0,19,-99.99,,,0.00,weatherlink.com 1.10,2013-05-26 03:11:00,
2013-05-25 21:26:00,55.3,13.0,29.63,SW,215,11.0,-999.0,19,-99.99,,,0.00,weatherlink.com 1.10,2013-05-26 03:26:00,
2013-05-25 21:41:00,55.3,13.0,29.64,SSW,205,9.0,-999.0,19,-99.99,,,0.00,weatherlink.com 1.10,2013-05-26 03:41:00,
2013-05-25 21:56:00,55.0,13.0,29.64,South,191,9.0,-999.0,19,-99.99,,,0.00,weatherlink.com 1.10,2013-05-26 03:56:00,
2013-05-25 22:12:00,54.9,13.0,29.64,SSW,207,9.0,-999.0,19,-99.99,,,0.00,weatherlink.com 1.10,2013-05-26 04:12:00,
2013-05-25 22:27:00,54.8,13.0,29.64,SSW,207,10.0,-999.0,19,-99.99,,,0.00,weatherlink.com 1.10,2013-05-26 04:27:00,
2013-05-25 22:42:00,54.6,13.0,29.64,SSW,207,7.0,-999.0,19,-99.99,,,0.00,weatherlink.com 1.10,2013-05-26 04:42:00,
2013-05-25 22:57:00,53.9,14.0,29.64,SW,226,10.0,-999.0,20,-99.99,,,0.00,weatherlink.com 1.10,2013-05-26 04:57:00,
2013-05-25 23:12:00,53.8,13.0,29.63,SSW,204,8.0,-999.0,20,-99.99,,,0.00,weatherlink.com 1.10,2013-05-26 05:12:00,
2013-05-25 23:27:00,53.6,13.0,29.63,SSW,209,7.0,-999.0,20,-99.99,,,0.00,weatherlink.com 1.10,2013-05-26 05:27:00,
2013-05-25 23:42:00,53.5,13.0,29.63,SW,220,8.0,-999.0,20,-99.99,,,0.00,weatherlink.com 1.10,2013-05-26 05:42:00,
2013-05-25 23:58:00,53.6,13.0,29.63,SW,220,8.0,-999.0,20,-99.99,,,0.00,weatherlink.com 1.10,2013-05-26 05:58:00,